Time;durP1;ratioP1;P1;durP2;ratioP2;P2;SDS_P1;SDS_P2;PMS_P1;PMS_P2;Temp;Humidity;BMP_temperature;BMP_pressure;BME280_temperature;BME280_humidity;BME280_pressure;Samples;Min_cycle;Max_cycle;Signal;HPM_P1;HPM_P2
2022/05/21 00:02:14;;;;;;;1.67;1.57;;;16.70;99.90;;;;;;5201810;28;20469;-52
2022/05/21 00:04:45;;;;;;;1.37;1.37;;;16.70;99.90;;;;;;5207657;28;20434;-50
2022/05/21 00:07:15;;;;;;;1.63;1.53;;;16.70;99.90;;;;;;5195859;28;20256;-51
2022/05/21 00:09:46;;;;;;;1.03;1.03;;;16.60;99.90;;;;;;5199974;28;20180;-51
2022/05/21 00:12:16;;;;;;;2.87;1.43;;;16.60;99.90;;;;;;5219600;28;20187;-52
2022/05/21 00:14:47;;;;;;;1.30;1.30;;;16.50;99.90;;;;;;5200678;28;20210;-50
2022/05/21 00:17:17;;;;;;;3.23;1.47;;;16.50;99.90;;;;;;5188709;28;20665;-52
2022/05/21 00:19:51;;;;;;;1.60;1.50;;;16.60;99.90;;;;;;5219801;28;20261;-51
2022/05/21 00:22:22;;;;;;;1.10;1.10;;;16.60;99.90;;;;;;5211175;28;20565;-52
2022/05/21 00:24:53;;;;;;;1.60;1.60;;;16.70;99.90;;;;;;5199913;28;20426;-53
2022/05/21 00:27:24;;;;;;;1.03;1.03;;;16.70;99.90;;;;;;5197495;28;20231;-52
2022/05/21 00:29:54;;;;;;;1.00;1.00;;;16.70;99.90;;;;;;5196781;28;20525;-51
2022/05/21 00:32:24;;;;;;;2.70;1.13;;;16.60;99.90;;;;;;5201223;28;20230;-50
2022/05/21 00:34:55;;;;;;;1.27;1.10;;;16.50;99.90;;;;;;5195894;28;20191;-53
2022/05/21 00:37:25;;;;;;;4.40;1.90;;;16.50;99.90;;;;;;5188688;28;20222;-55
2022/05/21 00:39:56;;;;;;;2.70;1.60;;;16.50;99.90;;;;;;5188865;28;20597;-52
2022/05/21 00:42:26;;;;;;;1.50;1.40;;;16.50;99.90;;;;;;5201887;28;20206;-54
2022/05/21 00:44:57;;;;;;;1.50;1.40;;;16.50;99.90;;;;;;5191042;28;20212;-52
2022/05/21 00:47:27;;;;;;;2.30;1.60;;;16.50;99.90;;;;;;5197590;28;20207;-53
2022/05/21 00:49:58;;;;;;;1.40;1.40;;;16.50;99.90;;;;;;5207247;28;20190;-53
2022/05/21 00:52:29;;;;;;;4.77;1.90;;;16.50;99.90;;;;;;5203035;28;20183;-51
2022/05/21 00:55:04;;;;;;;1.73;1.73;;;16.50;99.90;;;;;;5198035;28;20192;-50
2022/05/21 01:00:54;;;;;;;1.93;1.73;;;16.50;99.90;;;;;;5197047;28;20453;-50
2022/05/21 01:03:29;;;;;;;2.83;1.67;;;16.40;99.90;;;;;;5186322;28;20528;-51
2022/05/21 01:06:03;;;;;;;1.20;1.10;;;16.40;99.90;;;;;;5193945;28;20493;-51
2022/05/21 01:08:33;;;;;;;1.20;1.20;;;16.20;99.90;;;;;;5200502;28;21036;-51
2022/05/21 01:11:11;;;;;;;1.17;1.17;;;16.30;99.90;;;;;;5192630;28;20446;-50
2022/05/21 01:13:44;;;;;;;1.33;1.23;;;16.20;99.90;;;;;;5195528;28;20210;-50
2022/05/21 01:16:16;;;;;;;1.40;1.40;;;16.20;99.90;;;;;;5190308;28;20470;-51
2022/05/21 01:18:46;;;;;;;2.83;1.30;;;16.10;99.90;;;;;;5200749;28;20741;-52
2022/05/21 01:21:17;;;;;;;2.23;1.47;;;16.00;99.90;;;;;;5198548;28;20442;-51
2022/05/21 01:23:47;;;;;;;1.10;1.10;;;15.90;99.90;;;;;;5210083;28;20464;-51
2022/05/21 01:26:21;;;;;;;1.47;1.37;;;15.80;99.90;;;;;;5197586;28;20346;-52
2022/05/21 01:28:52;;;;;;;2.03;1.70;;;15.70;99.90;;;;;;5195963;28;20272;-52
2022/05/21 01:31:23;;;;;;;1.53;1.43;;;15.60;99.90;;;;;;5208805;28;20441;-51
2022/05/21 01:33:56;;;;;;;1.23;1.10;;;15.60;99.90;;;;;;5197488;28;20472;-51
2022/05/21 01:36:27;;;;;;;1.43;1.43;;;15.50;99.90;;;;;;5201554;28;20687;-50
2022/05/21 01:38:57;;;;;;;1.57;1.53;;;15.50;99.90;;;;;;5203367;28;20507;-52
2022/05/21 01:41:28;;;;;;;1.23;1.13;;;15.50;99.90;;;;;;5186724;28;20212;-53
2022/05/21 01:46:47;;;;;;;3.27;1.23;;;15.40;99.90;;;;;;5191627;28;20297;-50
2022/05/21 01:49:18;;;;;;;4.30;1.43;;;15.30;99.90;;;;;;5197597;28;20436;-52
2022/05/21 01:51:48;;;;;;;1.37;1.37;;;15.30;99.90;;;;;;5198676;28;20282;-51
2022/05/21 01:54:19;;;;;;;1.73;1.17;;;15.20;99.90;;;;;;5191658;28;20188;-52
2022/05/21 01:56:49;;;;;;;1.20;1.20;;;15.20;99.90;;;;;;5210806;28;20203;-51
2022/05/21 01:59:20;;;;;;;1.40;1.30;;;15.10;99.90;;;;;;5206862;28;20180;-50
2022/05/21 02:01:52;;;;;;;2.67;1.20;;;15.10;99.90;;;;;;5217207;28;20666;-51
2022/05/21 02:04:23;;;;;;;1.93;1.70;;;15.00;99.90;;;;;;5196070;28;20203;-50
2022/05/21 02:06:53;;;;;;;2.30;1.40;;;15.00;99.90;;;;;;5211307;28;20511;-54
2022/05/21 02:09:24;;;;;;;1.27;1.27;;;14.90;99.90;;;;;;5205921;28;20488;-53
2022/05/21 02:11:55;;;;;;;1.60;1.43;;;15.00;99.90;;;;;;5193717;28;20183;-51
2022/05/21 02:14:26;;;;;;;1.13;1.10;;;15.00;99.90;;;;;;5221245;28;20199;-50
2022/05/21 02:16:57;;;;;;;2.10;1.50;;;15.00;99.90;;;;;;5212742;28;20494;-50
2022/05/21 02:19:27;;;;;;;1.33;1.33;;;15.10;99.90;;;;;;5220289;28;20434;-50
2022/05/21 02:21:58;;;;;;;2.10;1.40;;;15.00;99.90;;;;;;5207007;28;20210;-51
2022/05/21 02:24:28;;;;;;;1.63;1.50;;;15.00;99.90;;;;;;5201171;28;20547;-53
2022/05/21 02:26:59;;;;;;;1.80;1.10;;;15.00;99.90;;;;;;5201814;28;20214;-51
2022/05/21 02:29:29;;;;;;;4.40;1.70;;;15.00;99.90;;;;;;5200196;28;20551;-50
2022/05/21 02:32:00;;;;;;;2.07;1.50;;;14.90;99.90;;;;;;5192504;28;20211;-51
2022/05/21 02:34:31;;;;;;;1.50;1.40;;;14.90;99.90;;;;;;5198548;28;20196;-51
2022/05/21 02:39:51;;;;;;;3.60;1.50;;;15.00;99.90;;;;;;5202177;28;20468;-51
2022/05/21 02:45:17;;;;;;;1.80;1.40;;;14.90;99.90;;;;;;5199891;28;20187;-53
2022/05/21 02:47:48;;;;;;;4.73;1.40;;;14.90;99.90;;;;;;5201124;28;20511;-51
2022/05/21 02:50:21;;;;;;;1.60;1.60;;;14.90;99.90;;;;;;5200520;28;20488;-52
2022/05/21 02:52:52;;;;;;;1.73;1.63;;;14.90;99.90;;;;;;5197376;28;20776;-50
2022/05/21 02:55:23;;;;;;;2.30;1.20;;;14.90;99.90;;;;;;5197328;28;20449;-50
2022/05/21 02:57:53;;;;;;;1.30;1.30;;;14.90;99.90;;;;;;5186915;28;20219;-51
2022/05/21 03:00:29;;;;;;;2.97;2.33;;;14.90;99.90;;;;;;5194041;28;20198;-50
2022/05/21 03:03:00;;;;;;;3.60;1.57;;;14.90;99.90;;;;;;5206468;28;20260;-50
2022/05/21 03:05:31;;;;;;;1.10;1.10;;;14.90;99.90;;;;;;5196099;28;20482;-50
2022/05/21 03:10:20;;;;;;;1.50;1.50;;;14.90;99.90;;;;;;5194214;28;20228;-50
2022/05/21 03:10:55;;;;;;;2.07;1.87;;;14.90;99.90;;;;;;5198234;28;20195;-50
2022/05/21 03:13:26;;;;;;;8.00;1.57;;;14.80;99.90;;;;;;5187160;28;20943;-52
2022/05/21 03:15:56;;;;;;;9.80;2.37;;;14.80;99.90;;;;;;5201223;28;20453;-52
2022/05/21 03:18:27;;;;;;;1.90;1.53;;;14.80;99.90;;;;;;5201585;28;20180;-49
2022/05/21 03:20:57;;;;;;;1.63;1.53;;;14.80;99.90;;;;;;5211911;28;20219;-51
2022/05/21 03:23:28;;;;;;;3.57;1.50;;;14.80;99.90;;;;;;5195842;28;20238;-53
2022/05/21 03:25:59;;;;;;;1.40;1.27;;;14.80;99.90;;;;;;5191448;28;20184;-52
2022/05/21 03:28:29;;;;;;;1.83;1.70;;;14.70;99.90;;;;;;5199698;28;20172;-50
2022/05/21 03:31:00;;;;;;;5.87;2.20;;;14.70;99.90;;;;;;5212763;28;20436;-51
2022/05/21 03:33:32;;;;;;;3.03;1.93;;;14.60;99.90;;;;;;5188109;28;20247;-50
2022/05/21 03:36:04;;;;;;;2.23;1.57;;;14.60;99.90;;;;;;5202735;28;20470;-51
2022/05/21 03:38:35;;;;;;;2.07;1.73;;;14.50;99.90;;;;;;5198723;28;20177;-52
2022/05/21 03:41:05;;;;;;;9.93;1.77;;;14.50;99.90;;;;;;5202110;28;20508;-48
2022/05/21 03:43:36;;;;;;;1.83;1.70;;;14.50;99.90;;;;;;5209825;28;20294;-52
2022/05/21 03:46:06;;;;;;;1.50;1.50;;;14.40;99.90;;;;;;5196127;28;20191;-51
2022/05/21 03:48:37;;;;;;;2.20;1.70;;;14.30;99.90;;;;;;5189485;28;20176;-50
2022/05/21 03:51:07;;;;;;;2.20;1.53;;;14.20;99.90;;;;;;5198644;28;20295;-53
2022/05/21 03:53:38;;;;;;;6.57;2.10;;;14.20;99.90;;;;;;5207031;28;20238;-52
2022/05/21 03:56:09;;;;;;;3.47;1.47;;;14.10;99.90;;;;;;5192897;28;20265;-50
2022/05/21 03:58:39;;;;;;;1.60;1.40;;;14.10;99.90;;;;;;5201931;28;20266;-51
2022/05/21 04:01:10;;;;;;;1.97;1.40;;;14.10;99.90;;;;;;5204316;28;20517;-50
2022/05/21 04:03:43;;;;;;;1.47;1.37;;;14.10;99.90;;;;;;5192843;28;20233;-51
2022/05/21 04:06:14;;;;;;;1.50;1.40;;;14.10;99.90;;;;;;5194054;28;20200;-50
2022/05/21 04:08:45;;;;;;;1.60;1.50;;;14.10;99.90;;;;;;5202819;28;20421;-50
2022/05/21 04:11:16;;;;;;;0.90;0.90;;;14.20;99.90;;;;;;5210310;28;20266;-50
2022/05/21 04:13:46;;;;;;;1.83;1.73;;;14.20;99.90;;;;;;5206153;28;20270;-50
2022/05/21 04:16:17;;;;;;;1.57;1.00;;;14.20;99.90;;;;;;5193703;28;20450;-51
2022/05/21 04:18:47;;;;;;;2.53;1.10;;;14.20;99.90;;;;;;5183667;28;20278;-51
2022/05/21 04:21:18;;;;;;;2.60;1.30;;;14.30;99.90;;;;;;5224241;28;20215;-53
2022/05/21 04:23:48;;;;;;;0.97;0.97;;;14.40;99.90;;;;;;5207849;28;20191;-50
2022/05/21 04:26:19;;;;;;;2.20;1.10;;;14.50;99.90;;;;;;5197568;28;20195;-50
2022/05/21 04:28:49;;;;;;;4.93;1.33;;;14.30;99.90;;;;;;5200260;28;20675;-50
2022/05/21 04:31:20;;;;;;;2.73;0.93;;;14.20;99.90;;;;;;5203255;28;20175;-51
2022/05/21 04:33:50;;;;;;;1.00;1.00;;;14.10;99.90;;;;;;5208151;28;20180;-50
2022/05/21 04:36:21;;;;;;;5.10;0.80;;;13.90;99.90;;;;;;5191987;28;20291;-53
2022/05/21 04:38:53;;;;;;;3.83;0.73;;;13.80;99.90;;;;;;5203556;28;20175;-52
2022/05/21 04:41:25;;;;;;;2.90;1.13;;;13.80;99.90;;;;;;5199654;28;20435;-50
2022/05/21 04:43:56;;;;;;;5.13;0.70;;;13.80;99.90;;;;;;5199736;28;20488;-49
2022/05/21 04:46:27;;;;;;;1.70;0.67;;;13.80;99.90;;;;;;5203221;28;20468;-52
2022/05/21 04:48:58;;;;;;;2.40;0.90;;;13.90;99.90;;;;;;5196647;28;20434;-52
2022/05/21 04:51:28;;;;;;;4.90;1.20;;;14.10;99.90;;;;;;5209810;28;20660;-50
2022/05/21 04:53:59;;;;;;;1.23;1.20;;;14.40;99.90;;;;;;5214447;28;20255;-51
2022/05/21 04:56:31;;;;;;;1.07;1.07;;;14.50;99.90;;;;;;5197076;28;20212;-54
2022/05/21 04:59:02;;;;;;;1.53;1.30;;;14.60;99.90;;;;;;5195294;28;20207;-50
2022/05/21 05:01:32;;;;;;;2.53;1.50;;;14.80;99.90;;;;;;5185945;28;20459;-49
2022/05/21 05:04:03;;;;;;;1.00;1.00;;;15.50;99.90;;;;;;5191268;28;20176;-50
2022/05/21 05:06:34;;;;;;;1.17;1.10;;;15.80;99.90;;;;;;5194904;28;20663;-51
2022/05/21 05:09:06;;;;;;;5.10;1.40;;;15.90;99.90;;;;;;5196532;28;20179;-50
2022/05/21 05:11:37;;;;;;;3.47;1.20;;;16.80;99.90;;;;;;5196547;28;20502;-51
2022/05/21 05:14:08;;;;;;;2.60;1.33;;;18.40;94.00;;;;;;5201672;28;20474;-53
2022/05/21 05:16:39;;;;;;;1.47;1.37;;;18.10;89.80;;;;;;5195174;28;20660;-50
2022/05/21 05:19:10;;;;;;;1.73;1.60;;;17.80;90.60;;;;;;5202022;28;20770;-50
2022/05/21 05:21:40;;;;;;;1.90;1.30;;;16.80;93.20;;;;;;5204263;28;20680;-49
2022/05/21 05:24:11;;;;;;;1.23;1.13;;;16.50;96.90;;;;;;5207331;28;20436;-52
2022/05/21 05:26:41;;;;;;;5.10;1.33;;;17.30;96.00;;;;;;5197652;28;20207;-51
2022/05/21 05:29:12;;;;;;;6.47;1.93;;;18.60;89.30;;;;;;5196789;28;20180;-50
2022/05/21 05:31:42;;;;;;;1.93;1.60;;;20.00;77.50;;;;;;5196328;28;20190;-50
2022/05/21 05:34:13;;;;;;;1.47;1.00;;;21.20;64.30;;;;;;5203899;28;20192;-50
2022/05/21 05:36:43;;;;;;;1.50;1.40;;;21.00;58.60;;;;;;5198135;28;20298;-50
2022/05/21 05:39:14;;;;;;;6.93;1.60;;;21.50;57.10;;;;;;5205874;28;20180;-51
2022/05/21 05:41:45;;;;;;;1.40;1.30;;;21.70;55.60;;;;;;5202122;28;20207;-52
2022/05/21 05:44:15;;;;;;;1.30;1.30;;;22.10;52.70;;;;;;5200076;28;20219;-52
2022/05/21 05:46:46;;;;;;;1.87;1.20;;;22.60;50.70;;;;;;5191964;28;20263;-49
2022/05/21 05:49:17;;;;;;;5.00;1.70;;;22.00;51.70;;;;;;5201834;28;20188;-51
2022/05/21 05:51:47;;;;;;;4.33;1.90;;;21.20;52.20;;;;;;5203625;28;20477;-51
2022/05/21 05:54:18;;;;;;;1.80;1.67;;;19.70;54.90;;;;;;5193207;28;20188;-54
2022/05/21 05:56:48;;;;;;;2.13;1.50;;;18.80;58.90;;;;;;5194873;28;20204;-49
2022/05/21 06:04:57;;;;;;;7.10;1.80;;;20.80;54.00;;;;;;5200461;28;21001;-51
2022/05/21 06:07:28;;;;;;;7.10;1.57;;;21.20;52.40;;;;;;5197333;28;20461;-50
2022/05/21 06:10:03;;;;;;;3.03;1.50;;;21.20;52.80;;;;;;5193978;28;20578;-50
2022/05/21 06:12:33;;;;;;;2.27;1.90;;;20.10;53.90;;;;;;5193604;28;20699;-50
2022/05/21 06:15:05;;;;;;;1.80;1.00;;;19.20;56.00;;;;;;5195509;28;20443;-51
2022/05/21 06:17:37;;;;;;;4.23;1.37;;;19.90;56.80;;;;;;5188198;28;20207;-53
2022/05/21 06:20:14;;;;;;;2.00;0.90;;;21.30;52.90;;;;;;5201213;28;20434;-50
2022/05/21 06:22:45;;;;;;;2.60;1.30;;;21.90;51.10;;;;;;5209366;28;20890;-50
2022/05/21 06:25:19;;;;;;;3.93;1.57;;;21.40;51.70;;;;;;5198017;28;20537;-50
2022/05/21 06:27:52;;;;;;;1.83;1.53;;;19.80;53.20;;;;;;5202123;28;20327;-50
2022/05/21 06:30:26;;;;;;;3.03;1.40;;;18.80;55.60;;;;;;5194529;28;20435;-51
2022/05/21 06:32:59;;;;;;;2.10;1.70;;;18.20;58.00;;;;;;5201551;28;20506;-52
2022/05/21 06:35:33;;;;;;;5.83;1.90;;;17.50;59.70;;;;;;5188806;28;20516;-52
2022/05/21 06:38:04;;;;;;;3.13;1.60;;;17.30;62.30;;;;;;5188468;28;20857;-52
2022/05/21 06:40:34;;;;;;;2.70;2.00;;;17.10;63.30;;;;;;5199951;28;20450;-49
2022/05/21 06:43:05;;;;;;;2.30;1.80;;;16.90;64.20;;;;;;5219012;28;20223;-50
2022/05/21 06:45:36;;;;;;;6.23;1.80;;;16.50;65.50;;;;;;5197423;28;20266;-50
2022/05/21 06:48:08;;;;;;;2.70;1.80;;;16.40;66.90;;;;;;5196806;28;20518;-53
2022/05/21 06:50:39;;;;;;;6.30;1.40;;;16.10;68.30;;;;;;5197296;28;20264;-50
2022/05/21 06:53:09;;;;;;;1.80;1.70;;;15.90;70.80;;;;;;5199932;28;20970;-49
2022/05/21 06:55:41;;;;;;;2.30;1.83;;;15.90;74.10;;;;;;5202866;28;20489;-49
2022/05/21 06:58:12;;;;;;;3.23;2.20;;;15.80;73.90;;;;;;5196183;28;20290;-52
2022/05/21 07:00:43;;;;;;;3.17;1.83;;;15.70;77.10;;;;;;5212387;28;21164;-52
2022/05/21 07:03:13;;;;;;;1.70;1.40;;;15.90;80.30;;;;;;5177679;28;20209;-51
2022/05/21 07:08:33;;;;;;;2.53;2.37;;;16.60;76.40;;;;;;5181478;28;20519;-53
2022/05/21 07:11:06;;;;;;;2.40;1.43;;;17.10;73.40;;;;;;5170889;28;20434;-52
2022/05/21 07:13:36;;;;;;;1.47;1.47;;;17.20;71.60;;;;;;5187560;28;20176;-51
2022/05/21 07:16:07;;;;;;;1.10;1.10;;;17.40;73.00;;;;;;5189749;28;20462;-51
2022/05/21 07:18:38;;;;;;;1.37;0.80;;;17.90;65.90;;;;;;5213279;28;20210;-50
2022/05/21 07:21:12;;;;;;;1.50;1.50;;;17.90;63.50;;;;;;5199725;28;20307;-52
2022/05/21 07:23:43;;;;;;;1.43;1.30;;;17.80;64.10;;;;;;5205710;28;20260;-50
2022/05/21 07:26:14;;;;;;;1.37;1.03;;;18.10;64.80;;;;;;5201267;28;20458;-50
2022/05/21 07:28:45;;;;;;;1.57;1.23;;;19.60;60.70;;;;;;5199734;28;20549;-50
2022/05/21 07:31:15;;;;;;;1.97;1.27;;;20.80;56.20;;;;;;5195105;28;20192;-50
2022/05/21 07:33:46;;;;;;;1.10;1.10;;;21.50;52.90;;;;;;5214149;28;20193;-53
2022/05/21 07:36:16;;;;;;;3.73;1.23;;;22.40;50.80;;;;;;5201498;28;20220;-50
2022/05/21 07:38:48;;;;;;;10.40;1.30;;;22.20;49.10;;;;;;5201869;28;20212;-51
2022/05/21 07:41:19;;;;;;;1.20;1.20;;;21.40;50.60;;;;;;5201291;28;20864;-50
2022/05/21 07:43:49;;;;;;;4.30;1.70;;;21.10;52.70;;;;;;5201180;28;20276;-50
2022/05/21 07:46:20;;;;;;;1.70;1.40;;;21.80;50.70;;;;;;5197501;28;20241;-51
2022/05/21 07:48:50;;;;;;;2.20;1.30;;;23.30;49.00;;;;;;5198353;28;20179;-50
2022/05/21 07:51:21;;;;;;;0.90;0.90;;;24.50;45.70;;;;;;5199713;28;20191;-49
2022/05/21 07:53:51;;;;;;;3.23;1.40;;;26.30;43.20;;;;;;5204690;28;20207;-50
2022/05/21 07:56:22;;;;;;;6.70;1.67;;;27.80;39.50;;;;;;5199891;28;20223;-52
2022/05/21 07:58:53;;;;;;;2.00;1.17;;;27.40;38.40;;;;;;5197272;28;20298;-51
2022/05/21 08:01:24;;;;;;;3.57;2.20;;;26.70;38.30;;;;;;5199614;28;20624;-51
2022/05/21 08:03:54;;;;;;;1.93;1.70;;;25.80;40.60;;;;;;5203501;28;20591;-51
2022/05/21 08:06:25;;;;;;;4.53;1.50;;;25.60;40.40;;;;;;5198981;28;20204;-50
2022/05/21 08:08:57;;;;;;;1.27;1.00;;;25.20;42.20;;;;;;5193429;28;20191;-51
2022/05/21 08:11:27;;;;;;;2.30;1.00;;;25.00;41.90;;;;;;5198806;28;20181;-50
2022/05/21 08:13:58;;;;;;;1.27;1.10;;;26.70;40.80;;;;;;5206324;28;20516;-52
2022/05/21 08:16:30;;;;;;;3.07;1.57;;;27.40;39.00;;;;;;5212755;28;20366;-51
2022/05/21 08:19:01;;;;;;;5.03;1.53;;;27.80;38.50;;;;;;5194483;28;20195;-53
2022/05/21 08:21:32;;;;;;;4.00;1.23;;;27.80;37.40;;;;;;5198405;28;20430;-52
2022/05/21 08:27:00;;;;;;;1.90;0.97;;;26.70;39.50;;;;;;5189045;28;20665;-49
2022/05/21 08:29:36;;;;;;;1.70;1.20;;;25.90;40.20;;;;;;5201960;28;20431;-50
2022/05/21 08:32:06;;;;;;;6.77;2.23;;;25.90;41.10;;;;;;5198170;28;20457;-50
2022/05/21 08:34:37;;;;;;;1.50;1.40;;;25.10;41.00;;;;;;5198077;28;20434;-53
2022/05/21 08:37:07;;;;;;;7.70;1.40;;;24.60;42.90;;;;;;5197382;28;20211;-49
2022/05/21 08:39:38;;;;;;;1.27;1.20;;;23.80;42.90;;;;;;5217349;28;20270;-54
2022/05/21 08:42:13;;;;;;;1.80;1.70;;;22.80;45.10;;;;;;5194850;28;20203;-51
2022/05/21 08:44:51;;;;;;;2.43;1.53;;;21.80;47.30;;;;;;5202966;28;20196;-52
2022/05/21 08:47:29;;;;;;;3.33;1.77;;;21.10;48.90;;;;;;5198429;28;20462;-51
2022/05/21 08:50:20;;;;;;;1.77;1.10;;;20.60;50.20;;;;;;5204075;28;20442;-52
2022/05/21 08:52:58;;;;;;;6.07;1.83;;;20.50;51.00;;;;;;5204969;28;20449;-52
2022/05/21 08:55:39;;;;;;;2.23;1.90;;;19.80;51.90;;;;;;5204406;28;20442;-52
2022/05/21 08:58:17;;;;;;;2.30;2.13;;;19.10;54.20;;;;;;5201441;28;21565;-51
2022/05/21 09:00:48;;;;;;;6.53;2.07;;;18.50;57.50;;;;;;5204009;28;20474;-52
2022/05/21 09:03:22;;;;;;;2.03;1.97;;;17.90;67.20;;;;;;5181794;28;20998;-52
2022/05/21 09:06:04;;;;;;;2.10;1.63;;;17.30;96.40;;;;;;5196489;28;20440;-50
2022/05/21 09:09:10;;;;;;;5.53;1.83;;;16.90;99.90;;;;;;5194362;28;20434;-51
2022/05/21 09:11:56;;;;;;;4.27;2.80;;;16.40;99.90;;;;;;5163427;28;20451;-52
2022/05/21 09:14:43;;;;;;;8.03;2.70;;;16.30;99.90;;;;;;5192233;28;20439;-50
2022/05/21 09:17:18;;;;;;;3.73;2.00;;;16.30;99.90;;;;;;5198113;28;20469;-49
2022/05/21 09:19:56;;;;;;;4.27;3.70;;;16.80;99.90;;;;;;5200420;28;20533;-50
2022/05/21 09:22:26;;;;;;;4.87;4.10;;;17.20;99.90;;;;;;5195150;28;20470;-51
2022/05/21 09:24:58;;;;;;;7.53;3.50;;;17.80;99.90;;;;;;5194037;28;20457;-53
2022/05/21 09:27:36;;;;;;;5.73;3.13;;;18.00;99.90;;;;;;5184832;28;20261;-50
2022/05/21 09:30:28;;;;;;;4.50;3.33;;;17.80;99.90;;;;;;5196195;28;20536;-52
2022/05/21 09:33:23;;;;;;;7.03;3.20;;;17.50;99.90;;;;;;5194272;28;20447;-50
2022/05/21 09:35:57;;;;;;;4.83;3.83;;;17.50;99.90;;;;;;5182556;28;20482;-51
2022/05/21 09:38:49;;;;;;;4.50;2.80;;;17.70;99.90;;;;;;5193035;28;20932;-54
2022/05/21 09:41:23;;;;;;;3.33;3.03;;;17.70;99.90;;;;;;5192696;28;20439;-52
2022/05/21 09:47:22;;;;;;;4.00;2.87;;;17.30;99.90;;;;;;5194034;28;20509;-50
2022/05/21 09:50:08;;;;;;;5.80;3.30;;;17.00;99.90;;;;;;5213449;28;20478;-51
2022/05/21 09:52:43;;;;;;;9.27;3.30;;;16.90;99.90;;;;;;5193646;28;20535;-52
2022/05/21 09:55:23;;;;;;;3.83;2.37;;;16.90;99.90;;;;;;5201273;28;20514;-50
2022/05/21 09:58:05;;;;;;;7.67;3.70;;;16.90;99.90;;;;;;5203666;28;20464;-52
2022/05/21 10:00:37;;;;;;;3.17;2.87;;;16.90;99.90;;;;;;5214262;28;20435;-51
2022/05/21 10:03:10;;;;;;;5.50;3.87;;;17.10;99.90;;;;;;5188616;28;20467;-51
2022/05/21 10:05:51;;;;;;;8.30;3.83;;;17.00;99.90;;;;;;5201767;28;20898;-52
2022/05/21 10:11:31;;;;;;;5.87;4.10;;;17.20;99.90;;;;;;5195123;28;20444;-51
2022/05/21 10:14:25;;;;;;;8.50;6.87;;;17.60;99.90;;;;;;5202187;28;20434;-51
2022/05/21 10:17:02;;;;;;;6.50;5.50;;;18.20;99.90;;;;;;5192309;28;20446;-52
2022/05/21 10:19:42;;;;;;;9.60;5.30;;;18.70;99.90;;;;;;5202149;28;20436;-53
2022/05/21 10:22:16;;;;;;;8.53;6.50;;;19.00;99.90;;;;;;5200720;28;20511;-51
2022/05/21 10:25:09;;;;;;;5.73;5.13;;;18.80;98.30;;;;;;5201209;28;20434;-52
2022/05/21 10:28:14;;;;;;;13.10;8.13;;;18.80;97.40;;;;;;5197141;28;20454;-50
2022/05/21 10:31:33;;;;;;;7.77;7.00;;;18.80;96.00;;;;;;5205540;28;20482;-51
2022/05/21 10:34:16;;;;;;;6.40;5.20;;;18.70;95.40;;;;;;5159310;28;20432;-52
2022/05/21 10:37:04;;;;;;;11.63;5.37;;;18.80;96.90;;;;;;5136243;28;20487;-51
2022/05/21 10:39:46;;;;;;;10.20;5.83;;;18.80;93.60;;;;;;5191314;28;20461;-51
2022/05/21 10:42:38;;;;;;;10.53;4.07;;;19.00;92.70;;;;;;5198214;28;20504;-52
2022/05/21 10:45:30;;;;;;;8.93;7.17;;;18.90;89.60;;;;;;5195492;28;20450;-53
2022/05/21 10:48:15;;;;;;;9.37;5.83;;;18.80;88.50;;;;;;5204262;28;20820;-53
2022/05/21 10:51:05;;;;;;;5.27;4.50;;;19.10;91.10;;;;;;5200797;28;20439;-52
2022/05/21 10:53:49;;;;;;;4.43;4.03;;;19.40;88.20;;;;;;5203842;28;20454;-52
2022/05/21 10:56:38;;;;;;;11.33;7.37;;;19.50;83.80;;;;;;5197255;28;20480;-52
2022/05/21 10:59:24;;;;;;;5.00;4.10;;;19.30;80.60;;;;;;5202220;28;20533;-51
2022/05/21 11:02:03;;;;;;;9.40;5.33;;;18.90;79.10;;;;;;5197441;28;20470;-53
2022/05/21 11:04:52;;;;;;;11.30;7.23;;;18.40;83.10;;;;;;5202214;28;20475;-50
2022/05/21 11:07:32;;;;;;;12.77;8.10;;;18.00;87.50;;;;;;5195234;28;20546;-51
2022/05/21 11:10:13;;;;;;;6.20;4.20;;;17.70;90.70;;;;;;5199128;28;20529;-51
2022/05/21 11:12:56;;;;;;;4.20;3.80;;;17.60;92.90;;;;;;5206620;28;20433;-52
2022/05/21 11:15:43;;;;;;;7.57;4.33;;;17.60;92.70;;;;;;5205971;28;20487;-50
2022/05/21 11:18:33;;;;;;;6.43;4.13;;;17.90;92.10;;;;;;5200558;28;20524;-52
2022/05/21 11:21:35;;;;;;;4.20;3.73;;;18.20;90.70;;;;;;5204225;28;20449;-52
2022/05/21 11:24:13;;;;;;;5.57;4.87;;;18.50;88.70;;;;;;5200542;28;20443;-50
2022/05/21 11:26:56;;;;;;;6.60;3.77;;;18.90;84.20;;;;;;5200763;28;20458;-53
2022/05/21 11:30:04;;;;;;;3.40;3.20;;;19.60;80.60;;;;;;5202809;28;20440;-53
2022/05/21 11:38:38;;;;;;;6.20;3.30;;;19.50;70.70;;;;;;5201291;28;20493;-52
2022/05/21 11:41:27;;;;;;;7.73;4.10;;;19.20;72.10;;;;;;5199493;28;20443;-51
2022/05/21 11:47:12;;;;;;;7.40;3.77;;;19.40;73.20;;;;;;5195955;28;20491;-53
2022/05/21 11:49:53;;;;;;;5.70;4.20;;;19.40;72.90;;;;;;5195235;28;20438;-51
2022/05/21 11:52:26;;;;;;;4.50;4.10;;;19.40;72.30;;;;;;5199137;28;20421;-51
2022/05/21 11:54:56;;;;;;;11.50;6.00;;;19.40;73.00;;;;;;5189446;28;20502;-52
2022/05/21 11:57:30;;;;;;;16.43;8.10;;;19.30;72.50;;;;;;5189691;28;20560;-52
2022/05/21 12:00:18;;;;;;;32.93;5.03;;;19.00;73.30;;;;;;5198181;28;20253;-51
2022/05/21 12:02:55;;;;;;;3.77;3.57;;;18.60;73.90;;;;;;5199344;28;20474;-52
2022/05/21 12:05:37;;;;;;;6.50;4.60;;;18.10;76.00;;;;;;5218678;28;20475;-52
2022/05/21 12:08:22;;;;;;;6.57;5.97;;;17.90;77.40;;;;;;5197658;28;20545;-53
2022/05/21 12:11:02;;;;;;;4.97;3.97;;;17.90;79.10;;;;;;5198369;28;20868;-52
2022/05/21 12:13:33;;;;;;;8.33;4.40;;;17.90;81.30;;;;;;5199337;28;20454;-52
2022/05/21 12:16:21;;;;;;;13.33;7.67;;;17.80;84.70;;;;;;5198341;28;20500;-53
2022/05/21 12:18:54;;;;;;;8.00;4.90;;;17.90;83.00;;;;;;5213697;28;20191;-52
2022/05/21 12:21:27;;;;;;;9.97;5.20;;;18.00;82.00;;;;;;5196919;28;20430;-52
2022/05/21 12:24:02;;;;;;;6.80;4.00;;;18.10;78.90;;;;;;5195087;28;20809;-53
2022/05/21 12:26:36;;;;;;;6.90;3.10;;;18.20;78.80;;;;;;5199394;28;20458;-53
2022/05/21 12:29:12;;;;;;;2.67;2.47;;;18.20;77.90;;;;;;5198075;28;20446;-52
2022/05/21 12:31:52;;;;;;;6.57;3.57;;;18.30;77.20;;;;;;5198310;28;20460;-53
2022/05/21 12:35:06;;;;;;;7.80;4.13;;;18.30;77.20;;;;;;5199126;28;20480;-51
2022/05/21 12:37:47;;;;;;;3.00;2.80;;;18.10;76.60;;;;;;5210730;28;20903;-52
2022/05/21 12:40:25;;;;;;;4.50;3.50;;;18.00;77.00;;;;;;5193443;28;20472;-52
2022/05/21 12:43:02;;;;;;;3.90;2.93;;;18.00;77.70;;;;;;5199380;28;20660;-52
2022/05/21 12:45:37;;;;;;;3.87;3.67;;;18.20;77.60;;;;;;5203219;28;20806;-55
2022/05/21 12:48:29;;;;;;;14.77;5.23;;;18.40;77.30;;;;;;5201604;28;20472;-52
2022/05/21 12:51:07;;;;;;;7.10;3.70;;;18.60;77.40;;;;;;5210161;28;20567;-52
2022/05/21 12:53:49;;;;;;;6.33;3.00;;;19.10;75.40;;;;;;5194696;28;20429;-52
2022/05/21 12:56:26;;;;;;;5.03;3.30;;;19.30;74.00;;;;;;5195456;28;20997;-52
2022/05/21 12:59:21;;;;;;;5.77;3.77;;;19.50;74.20;;;;;;5192732;28;20426;-54
2022/05/21 13:02:14;;;;;;;4.90;3.70;;;19.80;71.30;;;;;;5191349;28;20470;-51
2022/05/21 13:04:48;;;;;;;7.73;2.87;;;19.80;67.40;;;;;;5187476;28;20462;-52
2022/05/21 13:07:23;;;;;;;5.40;2.83;;;19.80;66.30;;;;;;5195915;28;20451;-52
2022/05/21 13:09:58;;;;;;;4.03;2.90;;;19.70;66.00;;;;;;5201865;28;20469;-52
2022/05/21 13:12:40;;;;;;;3.20;2.47;;;19.40;66.70;;;;;;5195523;28;20434;-53
2022/05/21 13:15:13;;;;;;;8.23;2.40;;;19.40;68.50;;;;;;5195299;28;20439;-53
2022/05/21 13:18:10;;;;;;;3.43;2.37;;;19.60;66.30;;;;;;5203149;28;20676;-52
2022/05/21 13:21:16;;;;;;;4.53;2.67;;;19.80;65.20;;;;;;5195132;28;20446;-54
2022/05/21 13:23:58;;;;;;;3.53;3.20;;;19.70;63.80;;;;;;5211707;28;20517;-54
2022/05/21 13:26:31;;;;;;;2.90;2.30;;;19.70;64.10;;;;;;5191317;28;20465;-52
2022/05/21 13:29:22;;;;;;;20.03;9.70;;;19.60;63.10;;;;;;5197620;28;20438;-52
2022/05/21 13:31:53;;;;;;;5.87;3.80;;;19.50;64.20;;;;;;5190166;28;20470;-52
2022/05/21 13:34:27;;;;;;;5.10;3.37;;;19.50;65.50;;;;;;5190301;28;20446;-52
2022/05/21 13:37:00;;;;;;;9.40;2.63;;;19.40;66.10;;;;;;5185470;28;20849;-53
2022/05/21 13:39:34;;;;;;;19.07;10.30;;;19.60;66.60;;;;;;5210102;28;20454;-53
2022/05/21 13:42:18;;;;;;;5.17;2.70;;;20.00;65.80;;;;;;5199449;28;20459;-53
2022/05/21 13:44:50;;;;;;;2.07;1.57;;;20.10;62.30;;;;;;5191890;28;20692;-52
2022/05/21 13:47:30;;;;;;;2.50;1.40;;;20.10;61.10;;;;;;5196791;28;20463;-53
2022/05/21 13:50:02;;;;;;;8.37;1.60;;;19.90;61.80;;;;;;5192191;28;20441;-50
2022/05/21 13:52:33;;;;;;;1.27;1.00;;;19.70;62.00;;;;;;5195175;28;20455;-52
2022/05/21 13:55:06;;;;;;;6.10;2.60;;;19.60;62.20;;;;;;5200206;28;20456;-53
2022/05/21 13:57:37;;;;;;;4.57;2.23;;;19.40;62.00;;;;;;5198213;28;20469;-54
2022/05/21 14:00:24;;;;;;;4.17;1.40;;;19.50;62.10;;;;;;5196560;28;20446;-53
2022/05/21 14:02:55;;;;;;;4.00;2.17;;;19.30;61.30;;;;;;5196196;28;20233;-51
2022/05/21 14:05:33;;;;;;;10.03;3.20;;;19.20;61.70;;;;;;5197361;28;20523;-52